createdAt,value
2023-03-02T00:01:09.562Z,79.37
2023-03-02T00:06:12.163Z,76.25
2023-03-02T00:11:15.701Z,79.26
2023-03-02T00:16:19.071Z,80.21
2023-03-02T00:21:21.302Z,80.88
2023-03-02T00:26:23.383Z,81.32
2023-03-02T00:31:25.831Z,81.77
2023-03-02T00:36:28.624Z,82.07
2023-03-02T00:41:34.253Z,82.36
2023-03-02T00:46:37.301Z,82.46
2023-03-02T00:51:40.961Z,82.66
2023-03-02T00:56:45.305Z,82.71
2023-03-02T01:01:57.824Z,82.51
2023-03-02T01:07:04.835Z,81.96
2023-03-02T01:12:11.359Z,81.33
2023-03-02T01:17:15.069Z,81.52
2023-03-02T01:22:18.626Z,81.48
2023-03-02T01:27:21.160Z,81.31
2023-03-02T01:32:23.180Z,81.16
2023-03-02T01:37:25.661Z,81.28
2023-03-02T01:42:27.775Z,81.42
2023-03-02T01:47:36.793Z,81.47
2023-03-02T01:52:47.681Z,81.40
2023-03-02T01:57:53.918Z,81.33
2023-03-02T02:03:09.022Z,81.29
2023-03-02T02:08:11.289Z,81.29
2023-03-02T02:13:13.628Z,81.33
2023-03-02T02:18:16.102Z,81.33
2023-03-02T02:23:30.003Z,81.52
2023-03-02T02:28:37.571Z,81.81
2023-03-02T02:33:43.778Z,82.08
2023-03-02T02:38:48.586Z,82.29
2023-03-02T02:43:52.342Z,82.41
2023-03-02T02:48:54.401Z,82.49
2023-03-02T02:53:59.157Z,82.63
2023-03-02T02:59:16.429Z,82.73
2023-03-02T03:04:22.164Z,82.61
2023-03-02T03:09:26.291Z,82.83
2023-03-02T03:14:34.411Z,82.76
2023-03-02T03:19:36.497Z,82.81
2023-03-02T03:24:39.915Z,82.86
2023-03-02T03:29:45.024Z,82.98
2023-03-02T03:34:48.137Z,83.08
2023-03-02T03:40:09.574Z,83.12
2023-03-02T03:45:13.074Z,83.17
2023-03-02T03:50:16.449Z,83.17
2023-03-02T03:55:19.589Z,83.20
2023-03-02T04:00:24.294Z,83.29
2023-03-02T04:05:33.474Z,83.38
2023-03-02T04:10:37.170Z,83.38
2023-03-02T04:15:41.863Z,82.96
2023-03-02T04:20:44.737Z,78.88
2023-03-02T04:25:47.801Z,79.10
2023-03-02T04:30:53.999Z,81.46
2023-03-02T04:35:56.678Z,82.15
2023-03-02T04:40:59.654Z,82.51
2023-03-02T04:46:04.818Z,82.92
2023-03-02T04:51:17.176Z,83.36
2023-03-02T04:56:19.409Z,83.79
2023-03-02T05:01:21.998Z,84.14
2023-03-02T05:06:27.857Z,84.41
2023-03-02T05:11:30.636Z,84.68
2023-03-02T05:16:36.361Z,84.91
2023-03-02T05:21:39.576Z,84.97
2023-03-02T05:26:41.758Z,85.04
2023-03-02T05:31:45.944Z,85.14
2023-03-02T05:36:48.124Z,85.05
2023-03-02T05:41:50.660Z,85.05
2023-03-02T05:46:52.905Z,83.85
2023-03-02T05:51:58.273Z,81.40
2023-03-02T05:57:00.356Z,80.78
2023-03-02T06:02:02.748Z,82.53
2023-03-02T06:07:06.168Z,81.45
2023-03-02T06:12:09.021Z,78.45
2023-03-02T06:17:11.119Z,79.60
2023-03-02T06:22:13.555Z,81.67
2023-03-02T06:27:16.212Z,81.77
2023-03-02T06:32:18.176Z,81.55
2023-03-02T06:37:20.785Z,82.18
2023-03-02T06:42:24.307Z,82.84
2023-03-02T06:47:26.192Z,83.24
2023-03-02T06:52:29.519Z,83.45
2023-03-02T06:57:34.507Z,83.59
2023-03-02T07:02:37.255Z,83.75
2023-03-02T07:07:39.985Z,83.82
2023-03-02T07:12:43.108Z,83.81
2023-03-02T07:17:46.326Z,83.70
2023-03-02T07:22:48.571Z,83.40
2023-03-02T07:27:51.222Z,81.20
2023-03-02T07:32:53.987Z,79.90
2023-03-02T07:37:55.989Z,76.99
2023-03-02T07:42:57.895Z,75.03
2023-03-02T07:48:00.213Z,73.95
2023-03-02T07:59:12.484Z,75.27
2023-03-02T08:04:14.471Z,74.66
2023-03-02T08:09:17.072Z,72.15
2023-03-02T08:14:19.398Z,72.37
2023-03-02T08:19:22.097Z,74.14
2023-03-02T08:24:24.649Z,72.95
2023-03-02T08:29:26.717Z,71.38
2023-03-02T08:34:28.878Z,71.80
2023-03-02T08:39:34.255Z,71.08
2023-03-02T08:44:36.210Z,70.13
2023-03-02T08:49:39.455Z,72.16
2023-03-02T08:54:42.189Z,69.40
2023-03-02T08:59:44.303Z,67.68
2023-03-02T09:04:46.509Z,68.00
2023-03-02T09:09:48.728Z,66.73
2023-03-02T09:14:50.612Z,67.96
2023-03-02T09:19:52.616Z,68.45
2023-03-02T09:24:54.753Z,68.40
2023-03-02T09:29:57.559Z,67.78
2023-03-02T09:34:59.577Z,66.78
2023-03-02T09:40:01.663Z,65.16
2023-03-02T09:45:15.713Z,65.07
2023-03-02T09:50:37.330Z,65.13
2023-03-02T09:55:39.446Z,63.86
2023-03-02T10:00:44.050Z,63.41
2023-03-02T10:05:55.461Z,61.59
2023-03-02T10:11:23.238Z,59.43
2023-03-02T10:16:44.426Z,60.13
2023-03-02T10:21:49.235Z,59.54
2023-03-02T10:26:58.569Z,59.85
2023-03-02T10:32:13.495Z,59.45
2023-03-02T10:37:19.885Z,59.38
2023-03-02T10:42:36.891Z,58.88
2023-03-02T10:47:38.921Z,57.80
2023-03-02T10:52:59.701Z,57.43
2023-03-02T10:58:21.676Z,57.77
2023-03-02T11:03:43.112Z,59.21
2023-03-02T11:08:45.309Z,56.57
2023-03-02T11:13:47.341Z,56.62
2023-03-02T11:19:03.775Z,57.28
2023-03-02T11:24:17.032Z,57.77
2023-03-02T11:29:41.868Z,57.12
2023-03-02T11:34:51.427Z,54.50
2023-03-02T11:40:21.516Z,54.21
2023-03-02T11:45:28.259Z,52.96
2023-03-02T11:50:34.763Z,52.72
2023-03-02T11:55:43.584Z,53.33
2023-03-02T12:00:47.706Z,52.21
2023-03-02T12:05:52.696Z,51.26
2023-03-02T12:11:01.534Z,51.87
2023-03-02T12:16:21.891Z,50.65
2023-03-02T12:21:25.766Z,51.11
2023-03-02T12:26:36.906Z,51.39
2023-03-02T12:31:53.410Z,52.73
2023-03-02T12:37:01.685Z,52.03
2023-03-02T12:42:47.593Z,49.77
2023-03-02T12:47:57.083Z,48.94
2023-03-02T12:53:09.140Z,50.60
2023-03-02T12:58:21.091Z,50.03
2023-03-02T13:03:26.357Z,50.53
2023-03-02T13:08:29.601Z,49.10
2023-03-02T13:13:43.530Z,49.42
2023-03-02T13:18:46.700Z,50.61
2023-03-02T13:23:54.558Z,51.32
2023-03-02T13:29:02.895Z,50.01
2023-03-02T13:34:05.002Z,50.85
2023-03-02T13:39:17.792Z,51.36
2023-03-02T13:44:23.260Z,52.62
2023-03-02T13:49:37.792Z,52.38
2023-03-02T13:54:44.236Z,51.55
2023-03-02T13:59:46.355Z,50.53
2023-03-02T14:04:48.496Z,50.36
2023-03-02T14:09:50.530Z,50.26
2023-03-02T14:14:54.500Z,49.44
2023-03-02T14:19:56.596Z,49.98
2023-03-02T14:24:58.842Z,50.42
2023-03-02T14:30:01.298Z,51.29
2023-03-02T14:35:04.109Z,50.93
2023-03-02T14:40:14.485Z,51.57
2023-03-02T14:45:17.288Z,51.75
2023-03-02T14:50:19.384Z,52.18
2023-03-02T14:55:26.513Z,52.16
2023-03-02T15:00:28.602Z,52.27
2023-03-02T15:05:32.020Z,52.02
2023-03-02T15:10:33.921Z,51.30
2023-03-02T15:15:36.666Z,51.88
2023-03-02T15:20:38.579Z,51.87
2023-03-02T15:25:40.886Z,52.02
2023-03-02T15:30:42.906Z,52.69
2023-03-02T15:35:44.855Z,53.02
2023-03-02T15:40:46.774Z,54.54
2023-03-02T15:45:49.194Z,54.92
2023-03-02T15:50:59.707Z,56.94
2023-03-02T15:56:09.160Z,57.23
2023-03-02T16:01:11.872Z,57.72
2023-03-02T16:06:15.913Z,57.78
2023-03-02T16:11:23.280Z,58.11
2023-03-02T16:16:26.326Z,58.62
2023-03-02T16:21:28.955Z,60.03
2023-03-02T16:26:36.663Z,60.19
2023-03-02T16:31:39.406Z,60.47
2023-03-02T16:36:42.187Z,61.20
2023-03-02T16:41:44.323Z,61.57
2023-03-02T16:46:46.579Z,61.99
2023-03-02T16:51:48.546Z,61.27
2023-03-02T16:56:50.517Z,62.00
2023-03-02T17:01:52.485Z,63.28
2023-03-02T17:07:01.773Z,63.41
2023-03-02T17:12:04.685Z,65.26
2023-03-02T17:17:06.598Z,65.70
2023-03-02T17:22:08.616Z,66.51
2023-03-02T17:27:24.178Z,67.08
2023-03-02T17:32:27.734Z,67.94
2023-03-02T17:37:30.495Z,68.60
2023-03-02T17:42:33.185Z,68.74
2023-03-02T17:47:35.663Z,68.67
2023-03-02T17:52:37.801Z,67.92
2023-03-02T17:57:39.786Z,66.45
2023-03-02T18:02:42.370Z,66.12
2023-03-02T18:07:44.423Z,65.84
2023-03-02T18:12:47.562Z,65.78
2023-03-02T18:17:49.659Z,66.25
2023-03-02T18:22:51.722Z,66.75
2023-03-02T18:27:56.059Z,67.37
2023-03-02T18:32:58.167Z,66.61
2023-03-02T18:38:00.369Z,66.47
2023-03-02T18:43:02.277Z,67.33
2023-03-02T18:48:04.419Z,68.07
2023-03-02T18:53:08.755Z,69.59
2023-03-02T18:58:19.900Z,70.42
2023-03-02T19:03:22.467Z,70.64
2023-03-02T19:08:25.265Z,69.12
2023-03-02T19:13:27.270Z,69.26
2023-03-02T19:18:29.355Z,69.11
2023-03-02T19:23:32.396Z,71.69
2023-03-02T19:28:35.096Z,72.20
2023-03-02T19:33:38.595Z,71.08
2023-03-02T19:38:44.595Z,71.30
2023-03-02T19:43:47.062Z,70.18
2023-03-02T19:48:48.953Z,70.86
2023-03-02T19:53:50.867Z,72.46
2023-03-02T19:58:54.220Z,74.03
2023-03-02T20:03:58.712Z,74.58
2023-03-02T20:09:03.897Z,74.37
2023-03-02T20:14:07.144Z,74.62
2023-03-02T20:19:09.273Z,73.54
2023-03-02T20:24:11.505Z,73.97
2023-03-02T20:29:15.151Z,75.22
2023-03-02T20:34:17.208Z,75.04
2023-03-02T20:39:24.655Z,74.83
2023-03-02T20:44:27.084Z,75.40
2023-03-02T20:49:31.027Z,75.56
2023-03-02T20:54:36.894Z,76.47
2023-03-02T20:59:38.858Z,77.09
2023-03-02T21:04:41.747Z,77.37
2023-03-02T21:09:45.186Z,77.47
2023-03-02T21:14:47.391Z,77.89
2023-03-02T21:19:49.348Z,78.22
2023-03-02T21:24:53.042Z,78.44
2023-03-02T21:30:06.089Z,78.62
2023-03-02T21:35:08.356Z,78.89
2023-03-02T21:40:16.714Z,79.06
2023-03-02T21:45:19.031Z,79.31
2023-03-02T21:50:24.101Z,79.02
2023-03-02T21:55:27.716Z,79.28
2023-03-02T22:00:32.715Z,79.66
2023-03-02T22:05:35.369Z,79.96
2023-03-02T22:10:48.440Z,80.10
2023-03-02T22:16:10.966Z,80.23
2023-03-02T22:21:25.248Z,80.36
2023-03-02T22:26:27.500Z,80.49
2023-03-02T22:31:29.513Z,80.65
2023-03-02T22:36:31.741Z,80.81
2023-03-02T22:42:06.497Z,80.99
2023-03-02T22:47:15.785Z,81.22
2023-03-02T22:52:25.352Z,81.42
2023-03-02T22:57:27.219Z,81.67
2023-03-02T23:02:29.314Z,81.80
2023-03-02T23:07:31.776Z,81.83
2023-03-02T23:12:35.158Z,81.50
2023-03-02T23:17:40.575Z,81.25
2023-03-02T23:22:43.288Z,81.67
2023-03-02T23:27:45.123Z,81.96
2023-03-02T23:32:47.119Z,82.21
2023-03-02T23:37:49.115Z,82.33
2023-03-02T23:42:51.189Z,82.46
2023-03-02T23:47:53.154Z,82.63
2023-03-02T23:52:55.030Z,82.78
2023-03-02T23:57:56.948Z,82.91
